createdAt,value
2022-07-30T00:02:19.138Z,1.70
2022-07-30T00:04:49.135Z,1.30
2022-07-30T00:07:16.095Z,1.42
2022-07-30T00:09:42.808Z,1.77
2022-07-30T00:12:09.973Z,1.48
2022-07-30T00:14:36.930Z,1.50
2022-07-30T00:17:05.100Z,1.35
2022-07-30T00:19:32.464Z,1.65
2022-07-30T00:21:59.477Z,1.40
2022-07-30T00:24:26.211Z,1.70
2022-07-30T00:26:52.942Z,1.65
2022-07-30T00:29:20.046Z,1.83
2022-07-30T00:31:46.847Z,1.50
2022-07-30T00:34:13.619Z,1.77
2022-07-30T00:36:40.547Z,1.63
2022-07-30T00:39:07.532Z,1.77
2022-07-30T00:41:34.514Z,1.73
2022-07-30T00:44:01.284Z,1.65
2022-07-30T00:46:28.235Z,1.52
2022-07-30T00:48:55.126Z,1.60
2022-07-30T00:51:22.090Z,1.50
2022-07-30T00:53:48.906Z,1.60
2022-07-30T00:56:15.644Z,1.80
2022-07-30T00:58:43.285Z,1.67
2022-07-30T01:01:10.061Z,1.52
2022-07-30T01:03:37.938Z,1.60
2022-07-30T01:06:04.690Z,1.70
2022-07-30T01:08:31.440Z,1.70
2022-07-30T01:10:58.183Z,1.80
2022-07-30T01:13:24.953Z,1.77
2022-07-30T01:15:51.712Z,1.88
2022-07-30T01:18:18.891Z,2.03
2022-07-30T01:21:07.491Z,1.73
2022-07-30T01:23:46.101Z,1.65
2022-07-30T01:26:17.680Z,1.63
2022-07-30T01:28:50.779Z,1.42
2022-07-30T01:31:18.001Z,2.22
2022-07-30T01:33:46.083Z,1.60
2022-07-30T01:36:15.394Z,2.05
2022-07-30T01:38:44.857Z,1.80
2022-07-30T01:41:12.910Z,1.67
2022-07-30T01:43:40.231Z,1.60
2022-07-30T01:46:08.160Z,1.50
2022-07-30T01:48:37.635Z,1.70
2022-07-30T01:51:06.355Z,1.52
2022-07-30T01:53:38.329Z,1.70
2022-07-30T01:56:05.621Z,2.00
2022-07-30T01:58:39.090Z,1.80
2022-07-30T02:01:14.491Z,1.80
2022-07-30T02:03:42.612Z,1.58
2022-07-30T02:06:23.693Z,1.75
2022-07-30T02:08:56.000Z,1.80
2022-07-30T02:11:43.439Z,1.83
2022-07-30T02:14:18.339Z,1.80
2022-07-30T02:16:46.320Z,1.77
2022-07-30T02:19:16.561Z,1.67
2022-07-30T02:21:50.319Z,1.92
2022-07-30T02:24:22.668Z,1.58
2022-07-30T02:26:52.274Z,1.55
2022-07-30T02:29:19.945Z,1.70
2022-07-30T02:31:48.813Z,1.80
2022-07-30T02:34:17.035Z,1.80
2022-07-30T02:36:45.131Z,1.63
2022-07-30T02:39:14.505Z,1.85
2022-07-30T02:41:46.661Z,1.77
2022-07-30T02:44:19.585Z,1.45
2022-07-30T02:46:48.371Z,1.70
2022-07-30T02:49:31.815Z,1.85
2022-07-30T02:52:00.676Z,1.70
2022-07-30T02:54:30.777Z,2.10
2022-07-30T02:57:00.219Z,1.70
2022-07-30T02:59:29.000Z,1.90
2022-07-30T03:01:56.118Z,1.70
2022-07-30T03:04:23.228Z,1.80
2022-07-30T03:06:50.297Z,1.70
2022-07-30T03:09:18.156Z,1.83
2022-07-30T03:11:46.035Z,1.63
2022-07-30T03:14:12.799Z,1.70
2022-07-30T03:16:42.272Z,1.70
2022-07-30T03:19:13.897Z,1.60
2022-07-30T03:21:41.722Z,2.15
2022-07-30T03:24:09.348Z,1.77
2022-07-30T03:26:36.734Z,1.90
2022-07-30T03:29:03.817Z,1.98
2022-07-30T03:31:32.644Z,1.88
2022-07-30T03:34:03.340Z,2.00
2022-07-30T03:36:34.251Z,1.63
2022-07-30T03:39:02.179Z,2.10
2022-07-30T03:41:29.523Z,1.90
2022-07-30T03:43:56.825Z,2.00
2022-07-30T03:46:24.283Z,1.90
2022-07-30T03:48:52.624Z,1.58
2022-07-30T03:51:19.918Z,1.75
2022-07-30T03:53:47.075Z,1.70
2022-07-30T03:56:33.939Z,1.75
2022-07-30T03:59:01.822Z,1.83
2022-07-30T04:01:28.979Z,2.38
2022-07-30T04:04:10.734Z,1.92
2022-07-30T04:06:40.305Z,2.00
2022-07-30T04:09:12.281Z,1.75
2022-07-30T04:11:41.597Z,1.70
2022-07-30T04:14:14.402Z,2.17
2022-07-30T04:17:07.173Z,1.95
2022-07-30T04:19:36.425Z,3.03
2022-07-30T04:22:03.823Z,2.17
2022-07-30T04:24:33.707Z,2.30
2022-07-30T04:27:01.971Z,1.70
2022-07-30T04:29:29.259Z,1.65
2022-07-30T04:31:56.336Z,2.05
2022-07-30T04:34:52.841Z,2.17
2022-07-30T04:37:39.979Z,1.88
2022-07-30T04:40:07.436Z,2.00
2022-07-30T04:42:34.197Z,1.70
2022-07-30T04:45:06.455Z,1.90
2022-07-30T04:47:47.927Z,2.00
2022-07-30T04:50:30.527Z,1.95
2022-07-30T04:52:58.378Z,1.85
2022-07-30T04:55:33.188Z,2.13
2022-07-30T04:58:00.259Z,1.92
2022-07-30T05:00:32.626Z,1.63
2022-07-30T05:03:01.167Z,1.70
2022-07-30T05:05:31.456Z,1.55
2022-07-30T05:07:59.442Z,1.67
2022-07-30T05:10:26.710Z,1.92
2022-07-30T05:12:53.605Z,1.83
2022-07-30T05:15:22.136Z,2.22
2022-07-30T05:18:03.599Z,1.73
2022-07-30T05:20:34.101Z,1.60
2022-07-30T05:23:10.170Z,1.23
2022-07-30T05:25:39.320Z,1.73
2022-07-30T05:28:22.715Z,1.75
2022-07-30T05:30:49.664Z,1.60
2022-07-30T05:33:18.577Z,1.95
2022-07-30T05:35:45.873Z,1.80
2022-07-30T05:38:13.535Z,1.77
2022-07-30T05:41:31.709Z,1.50
2022-07-30T05:44:23.600Z,1.40
2022-07-30T05:46:52.057Z,1.60
2022-07-30T05:49:19.790Z,1.30
2022-07-30T05:51:46.639Z,1.58
2022-07-30T05:54:13.884Z,1.52
2022-07-30T05:56:59.653Z,1.50
2022-07-30T05:59:34.778Z,1.88
2022-07-30T06:02:24.418Z,1.45
2022-07-30T06:05:09.782Z,1.65
2022-07-30T06:07:36.723Z,1.33
2022-07-30T06:10:06.453Z,1.48
2022-07-30T06:12:33.189Z,1.50
2022-07-30T06:15:01.523Z,1.60
2022-07-30T06:17:41.501Z,1.55
2022-07-30T06:20:22.384Z,1.23
2022-07-30T06:22:57.953Z,1.65
2022-07-30T06:25:39.305Z,1.33
2022-07-30T06:28:34.674Z,1.60
2022-07-30T06:30:54.726Z,1.52
2022-07-30T06:33:23.792Z,1.55
2022-07-30T06:35:51.307Z,1.20
2022-07-30T06:38:21.590Z,1.20
2022-07-30T06:41:02.533Z,1.20
2022-07-30T06:43:45.021Z,1.45
2022-07-30T06:46:35.134Z,1.30
2022-07-30T06:49:02.104Z,1.27
2022-07-30T06:51:32.150Z,1.30
2022-07-30T06:53:59.018Z,1.00
2022-07-30T06:56:57.800Z,1.10
2022-07-30T06:59:24.821Z,1.33
2022-07-30T07:02:07.192Z,0.90
2022-07-30T07:04:46.271Z,1.20
2022-07-30T07:07:13.764Z,1.30
2022-07-30T07:09:44.742Z,1.58
2022-07-30T07:12:44.004Z,1.20
2022-07-30T07:15:11.724Z,1.20
2022-07-30T07:17:38.835Z,1.20
2022-07-30T07:20:06.215Z,1.13
2022-07-30T07:22:40.285Z,1.20
2022-07-30T07:25:08.996Z,1.30
2022-07-30T07:27:36.838Z,1.20
2022-07-30T07:30:06.212Z,1.15
2022-07-30T07:32:36.696Z,1.73
2022-07-30T07:35:05.471Z,1.00
2022-07-30T07:37:34.312Z,1.13
2022-07-30T07:40:02.346Z,1.20
2022-07-30T07:42:32.303Z,1.30
2022-07-30T07:44:59.048Z,1.10
2022-07-30T07:47:55.476Z,1.13
2022-07-30T07:50:45.560Z,1.20
2022-07-30T07:53:20.856Z,1.00
2022-07-30T07:55:47.853Z,1.15
2022-07-30T07:58:17.574Z,1.17
2022-07-30T08:00:53.123Z,1.40
2022-07-30T08:03:22.361Z,1.15
2022-07-30T08:05:58.038Z,1.20
2022-07-30T08:08:47.849Z,0.90
2022-07-30T08:11:53.430Z,1.40
2022-07-30T08:14:49.560Z,1.20
2022-07-30T08:17:46.846Z,1.00
2022-07-30T08:20:19.730Z,1.30
2022-07-30T08:22:47.384Z,1.08
2022-07-30T08:25:21.833Z,1.17
2022-07-30T08:27:51.567Z,1.10
2022-07-30T08:30:20.561Z,1.20
2022-07-30T08:32:47.444Z,1.42
2022-07-30T08:35:14.531Z,1.10
2022-07-30T08:37:42.360Z,1.45
2022-07-30T08:40:09.918Z,1.50
2022-07-30T08:42:45.686Z,1.30
2022-07-30T08:45:13.893Z,1.27
2022-07-30T08:47:41.519Z,1.10
2022-07-30T08:50:11.756Z,1.30
2022-07-30T08:53:09.787Z,1.10
2022-07-30T08:55:37.395Z,1.20
2022-07-30T08:58:05.588Z,1.15
2022-07-30T09:00:32.602Z,1.02
2022-07-30T09:02:59.684Z,1.13
2022-07-30T09:05:26.488Z,1.42
2022-07-30T09:07:53.496Z,1.30
2022-07-30T09:10:24.175Z,1.20
2022-07-30T09:12:51.423Z,1.40
2022-07-30T09:15:20.648Z,1.02
2022-07-30T09:17:55.027Z,1.50
2022-07-30T09:20:25.568Z,1.30
2022-07-30T09:22:58.625Z,1.20
2022-07-30T09:26:01.087Z,1.30
2022-07-30T09:28:45.962Z,1.05
2022-07-30T09:31:16.945Z,1.40
2022-07-30T09:34:02.380Z,1.60
2022-07-30T09:37:03.629Z,1.48
2022-07-30T09:40:12.193Z,1.45
2022-07-30T09:43:09.501Z,1.50
2022-07-30T09:45:56.589Z,1.45
2022-07-30T09:48:28.518Z,1.30
2022-07-30T09:50:58.408Z,1.30
2022-07-30T09:53:26.915Z,1.50
2022-07-30T09:55:53.838Z,1.63
2022-07-30T09:58:26.628Z,1.33
2022-07-30T10:01:00.177Z,1.35
2022-07-30T10:03:46.500Z,1.10
2022-07-30T10:06:38.198Z,1.40
2022-07-30T10:09:45.317Z,1.00
2022-07-30T10:12:15.377Z,1.10
2022-07-30T10:14:47.497Z,1.50
2022-07-30T10:17:18.149Z,1.20
2022-07-30T10:20:08.142Z,1.20
2022-07-30T10:22:54.528Z,1.17
2022-07-30T10:25:49.642Z,1.50
2022-07-30T10:28:48.237Z,1.00
2022-07-30T10:31:48.042Z,1.13
2022-07-30T10:34:03.019Z,1.23
2022-07-30T10:36:30.920Z,0.90
2022-07-30T10:38:59.598Z,1.05
2022-07-30T10:41:42.802Z,1.05
2022-07-30T10:44:20.293Z,1.17
2022-07-30T10:47:07.854Z,0.93
2022-07-30T10:49:40.599Z,1.10
2022-07-30T10:52:09.109Z,1.00
2022-07-30T10:54:40.313Z,1.20
2022-07-30T10:57:15.221Z,1.00
2022-07-30T10:59:49.864Z,0.90
2022-07-30T11:02:18.012Z,1.10
2022-07-30T11:04:46.753Z,1.15
2022-07-30T11:07:24.042Z,0.90
2022-07-30T11:10:09.401Z,0.85
2022-07-30T11:12:44.015Z,0.80
2022-07-30T11:15:18.424Z,0.90
2022-07-30T11:18:12.775Z,0.85
2022-07-30T11:20:41.346Z,1.00
2022-07-30T11:23:24.642Z,0.90
2022-07-30T11:25:54.988Z,0.90
2022-07-30T11:28:38.519Z,0.68
2022-07-30T11:31:49.871Z,0.82
2022-07-30T11:34:19.738Z,0.90
2022-07-30T11:37:03.167Z,0.90
2022-07-30T11:39:58.573Z,0.80
2022-07-30T11:42:25.558Z,0.93
2022-07-30T11:44:52.768Z,0.90
2022-07-30T11:47:20.167Z,0.90
2022-07-30T11:49:47.669Z,0.90
2022-07-30T11:52:23.041Z,0.73
2022-07-30T11:54:54.632Z,0.80
2022-07-30T11:57:21.646Z,0.70
2022-07-30T11:59:55.775Z,1.00
2022-07-30T12:02:29.556Z,0.90
2022-07-30T12:04:56.450Z,0.70
2022-07-30T12:07:24.195Z,0.82
2022-07-30T12:09:51.085Z,0.80
2022-07-30T12:12:27.557Z,0.77
2022-07-30T12:14:55.539Z,0.63
2022-07-30T12:17:44.132Z,0.80
2022-07-30T12:20:19.190Z,0.90
2022-07-30T12:22:46.616Z,0.82
2022-07-30T12:25:14.958Z,0.80
2022-07-30T12:27:51.745Z,0.70
2022-07-30T12:30:19.714Z,0.80
2022-07-30T12:32:47.891Z,0.77
2022-07-30T12:35:15.617Z,0.70
2022-07-30T12:38:02.671Z,0.85
2022-07-30T12:40:29.871Z,0.75
2022-07-30T12:42:57.000Z,0.85
2022-07-30T12:45:51.999Z,0.95
2022-07-30T12:48:19.932Z,0.80
2022-07-30T12:50:49.332Z,0.80
2022-07-30T12:53:16.556Z,0.82
2022-07-30T12:55:45.146Z,0.85
2022-07-30T12:58:12.329Z,0.95
2022-07-30T13:00:53.081Z,0.93
2022-07-30T13:03:26.335Z,0.93
2022-07-30T13:05:56.185Z,0.63
2022-07-30T13:08:53.502Z,0.98
2022-07-30T13:11:26.400Z,1.00
2022-07-30T13:13:53.738Z,1.27
2022-07-30T13:16:21.103Z,0.90
2022-07-30T13:18:49.305Z,1.08
2022-07-30T13:21:16.468Z,0.90
2022-07-30T13:23:43.442Z,0.70
2022-07-30T13:26:10.952Z,1.02
2022-07-30T13:28:38.017Z,1.00
2022-07-30T13:31:05.008Z,1.05
2022-07-30T13:33:32.456Z,0.70
2022-07-30T13:35:59.654Z,0.75
2022-07-30T13:38:27.205Z,0.90
2022-07-30T13:40:56.137Z,0.98
2022-07-30T13:43:26.152Z,0.70
2022-07-30T13:45:53.472Z,0.70
2022-07-30T13:48:24.509Z,0.90
2022-07-30T13:50:51.314Z,0.95
2022-07-30T13:53:18.124Z,1.13
2022-07-30T13:55:47.021Z,0.68
2022-07-30T13:58:14.494Z,0.80
2022-07-30T14:00:41.811Z,0.90
2022-07-30T14:03:11.246Z,1.10
2022-07-30T14:05:42.174Z,1.00
2022-07-30T14:08:10.931Z,0.93
2022-07-30T14:10:39.991Z,1.10
2022-07-30T14:13:08.486Z,0.90
2022-07-30T14:15:35.458Z,1.00
2022-07-30T14:18:02.604Z,1.00
2022-07-30T14:20:29.905Z,0.90
2022-07-30T14:22:57.493Z,1.00
2022-07-30T14:25:24.715Z,0.95
2022-07-30T14:27:51.813Z,1.00
2022-07-30T14:30:18.733Z,1.17
2022-07-30T14:32:45.604Z,0.90
2022-07-30T14:35:13.560Z,1.00
2022-07-30T14:37:41.475Z,0.95
2022-07-30T14:40:11.957Z,0.90
2022-07-30T14:42:42.863Z,1.10
2022-07-30T14:45:10.711Z,0.80
2022-07-30T14:47:38.028Z,0.90
2022-07-30T14:50:05.456Z,1.52
2022-07-30T14:52:35.253Z,1.05
2022-07-30T14:55:03.832Z,0.90
2022-07-30T14:57:33.880Z,0.93
2022-07-30T15:00:01.150Z,0.90
2022-07-30T15:02:28.358Z,1.02
2022-07-30T15:04:55.987Z,1.02
2022-07-30T15:07:23.500Z,0.85
2022-07-30T15:09:50.829Z,0.93
2022-07-30T15:12:26.719Z,0.80
2022-07-30T15:14:54.243Z,0.95
2022-07-30T15:17:21.206Z,0.95
2022-07-30T15:19:50.856Z,1.10
2022-07-30T15:22:20.472Z,1.25
2022-07-30T15:24:48.935Z,1.05
2022-07-30T15:27:16.151Z,0.90
2022-07-30T15:29:43.108Z,1.30
2022-07-30T15:32:10.083Z,0.95
2022-07-30T15:34:37.219Z,1.05
2022-07-30T15:37:05.319Z,1.10
2022-07-30T15:39:33.679Z,1.27
2022-07-30T15:42:01.751Z,1.00
2022-07-30T15:44:29.339Z,0.93
2022-07-30T15:46:56.350Z,0.90
2022-07-30T15:49:23.787Z,1.00
2022-07-30T15:51:51.943Z,0.82
2022-07-30T15:54:22.132Z,1.00
2022-07-30T15:56:51.421Z,0.88
2022-07-30T15:59:18.721Z,1.00
2022-07-30T16:01:48.019Z,1.00
2022-07-30T16:04:19.349Z,1.35
2022-07-30T16:06:50.055Z,1.00
2022-07-30T16:09:17.199Z,1.02
2022-07-30T16:11:44.181Z,0.98
2022-07-30T16:14:14.056Z,1.00
2022-07-30T16:16:41.054Z,1.20
2022-07-30T16:19:08.134Z,0.98
2022-07-30T16:21:36.346Z,1.00
2022-07-30T16:24:04.678Z,1.00
2022-07-30T16:26:32.122Z,1.00
2022-07-30T16:28:59.463Z,1.55
2022-07-30T16:31:26.470Z,1.00
2022-07-30T16:33:54.207Z,1.00
2022-07-30T16:36:21.512Z,1.20
2022-07-30T16:38:49.193Z,1.67
2022-07-30T16:41:16.845Z,1.10
2022-07-30T16:43:44.230Z,0.90
2022-07-30T16:46:13.880Z,1.10
2022-07-30T16:48:40.817Z,0.90
2022-07-30T16:51:07.845Z,1.23
2022-07-30T16:53:36.068Z,1.10
2022-07-30T16:56:02.945Z,1.00
2022-07-30T16:58:31.281Z,1.08
2022-07-30T17:00:58.291Z,0.95
2022-07-30T17:03:25.685Z,1.08
2022-07-30T17:05:53.270Z,1.00
2022-07-30T17:08:24.945Z,0.88
2022-07-30T17:10:53.038Z,5.90
2022-07-30T17:13:21.010Z,1.58
2022-07-30T17:15:51.088Z,0.93
2022-07-30T17:18:18.166Z,1.00
2022-07-30T17:20:45.786Z,0.90
2022-07-30T17:23:13.056Z,1.10
2022-07-30T17:25:40.787Z,1.40
2022-07-30T17:28:08.263Z,2.00
2022-07-30T17:30:35.260Z,2.80
2022-07-30T17:33:02.498Z,2.22
2022-07-30T17:35:29.454Z,1.33
2022-07-30T17:37:56.541Z,1.15
2022-07-30T17:40:29.297Z,1.30
2022-07-30T17:43:04.172Z,1.30
2022-07-30T17:45:34.490Z,1.20
2022-07-30T17:48:02.319Z,2.17
2022-07-30T17:50:30.750Z,3.15
2022-07-30T17:53:03.733Z,3.92
2022-07-30T17:55:37.636Z,3.65
2022-07-30T17:58:05.375Z,3.22
2022-07-30T18:00:32.934Z,2.30
2022-07-30T18:03:00.146Z,2.38
2022-07-30T18:05:27.942Z,1.60
2022-07-30T18:07:55.380Z,1.23
2022-07-30T18:10:22.418Z,1.55
2022-07-30T18:12:50.855Z,1.50
2022-07-30T18:15:19.147Z,1.40
2022-07-30T18:17:46.574Z,1.30
2022-07-30T18:20:14.145Z,1.33
2022-07-30T18:22:42.621Z,2.30
2022-07-30T18:25:18.640Z,1.48
2022-07-30T18:27:47.625Z,1.13
2022-07-30T18:30:15.953Z,1.27
2022-07-30T18:32:46.291Z,1.30
2022-07-30T18:35:15.237Z,1.52
2022-07-30T18:37:44.116Z,1.63
2022-07-30T18:40:13.486Z,1.42
2022-07-30T18:42:40.946Z,1.63
2022-07-30T18:45:09.420Z,2.60
2022-07-30T18:47:37.194Z,2.00
2022-07-30T18:50:05.402Z,1.98
2022-07-30T18:52:32.440Z,1.80
2022-07-30T18:55:00.193Z,1.90
2022-07-30T18:57:28.216Z,1.80
2022-07-30T18:59:55.856Z,2.03
2022-07-30T19:02:25.942Z,2.20
2022-07-30T19:04:53.597Z,3.00
2022-07-30T19:07:20.688Z,2.40
2022-07-30T19:09:48.342Z,2.15
2022-07-30T19:12:15.255Z,2.00
2022-07-30T19:14:42.238Z,1.77
2022-07-30T19:17:14.063Z,1.98
2022-07-30T19:19:42.426Z,4.15
2022-07-30T19:22:09.374Z,3.65
2022-07-30T19:24:36.114Z,3.08
2022-07-30T19:27:05.423Z,2.58
2022-07-30T19:29:33.231Z,2.40
2022-07-30T19:32:00.455Z,3.30
2022-07-30T19:34:27.549Z,3.65
2022-07-30T19:36:54.368Z,4.00
2022-07-30T19:39:22.103Z,3.38
2022-07-30T19:41:51.003Z,3.40
2022-07-30T19:44:18.764Z,3.35
2022-07-30T19:46:46.154Z,2.35
2022-07-30T19:49:12.923Z,1.92
2022-07-30T19:52:09.867Z,2.00
2022-07-30T19:54:27.031Z,1.70
2022-07-30T19:56:53.771Z,1.73
2022-07-30T19:59:25.281Z,1.60
2022-07-30T20:02:08.513Z,1.88
2022-07-30T20:04:36.836Z,2.20
2022-07-30T20:07:04.364Z,2.38
2022-07-30T20:09:31.405Z,2.20
2022-07-30T20:11:59.863Z,2.35
2022-07-30T20:14:29.519Z,2.95
2022-07-30T20:16:56.452Z,6.05
2022-07-30T20:19:35.910Z,5.80
2022-07-30T20:22:03.205Z,3.10
2022-07-30T20:24:30.090Z,2.53
2022-07-30T20:26:58.068Z,2.53
2022-07-30T20:29:25.111Z,2.15
2022-07-30T20:31:51.925Z,2.15
2022-07-30T20:34:25.833Z,2.40
2022-07-30T20:36:53.954Z,2.03
2022-07-30T20:39:24.246Z,1.67
2022-07-30T20:42:07.767Z,1.83
2022-07-30T20:44:43.377Z,2.13
2022-07-30T20:47:28.268Z,2.13
2022-07-30T20:50:09.527Z,1.90
2022-07-30T20:52:40.435Z,2.30
2022-07-30T20:55:09.362Z,2.03
2022-07-30T20:57:57.157Z,1.98
2022-07-30T21:00:23.542Z,2.00
2022-07-30T21:02:51.709Z,2.25
2022-07-30T21:05:19.852Z,2.40
2022-07-30T21:07:47.231Z,2.10
2022-07-30T21:10:14.650Z,2.30
2022-07-30T21:12:44.800Z,2.20
2022-07-30T21:15:23.644Z,2.13
2022-07-30T21:17:51.522Z,2.00
2022-07-30T21:20:28.083Z,2.00
2022-07-30T21:22:56.172Z,2.40
2022-07-30T21:25:32.356Z,2.10
2022-07-30T21:28:02.798Z,2.33
2022-07-30T21:30:30.986Z,2.30
2022-07-30T21:32:58.356Z,2.00
2022-07-30T21:35:25.465Z,2.10
2022-07-30T21:37:59.391Z,1.95
2022-07-30T21:40:27.814Z,2.38
2022-07-30T21:42:55.954Z,2.20
2022-07-30T21:45:26.975Z,2.20
2022-07-30T21:48:10.815Z,2.10
2022-07-30T21:50:38.268Z,2.10
2022-07-30T21:53:05.204Z,2.30
2022-07-30T21:55:33.462Z,2.40
2022-07-30T21:58:25.935Z,2.67
2022-07-30T22:00:55.125Z,2.08
2022-07-30T22:04:02.806Z,2.92
2022-07-30T22:06:12.600Z,4.40
2022-07-30T22:08:39.931Z,6.05
2022-07-30T22:11:09.048Z,7.72
2022-07-30T22:13:53.736Z,7.00
2022-07-30T22:16:21.962Z,8.60
2022-07-30T22:18:50.062Z,8.93
2022-07-30T22:21:16.931Z,8.00
2022-07-30T22:23:54.993Z,8.68
2022-07-30T22:26:26.901Z,6.20
2022-07-30T22:28:54.279Z,6.68
2022-07-30T22:31:21.415Z,6.32
2022-07-30T22:33:49.900Z,6.03
2022-07-30T22:36:24.472Z,6.50
2022-07-30T22:38:59.097Z,6.90
2022-07-30T22:41:29.065Z,6.30
2022-07-30T22:43:55.969Z,5.85
2022-07-30T22:46:30.953Z,7.50
2022-07-30T22:48:59.222Z,9.07
2022-07-30T22:52:19.591Z,8.70
2022-07-30T22:54:13.582Z,6.25
2022-07-30T22:56:41.741Z,8.02
2022-07-30T22:59:12.915Z,6.70
2022-07-30T23:01:43.346Z,5.25
2022-07-30T23:04:13.450Z,4.72
2022-07-30T23:06:41.962Z,4.40
2022-07-30T23:09:08.710Z,3.72
2022-07-30T23:11:38.931Z,3.72
2022-07-30T23:14:06.624Z,3.30
2022-07-30T23:16:33.460Z,3.25
2022-07-30T23:19:00.218Z,3.83
2022-07-30T23:21:27.155Z,4.00
2022-07-30T23:23:53.940Z,3.95
2022-07-30T23:26:20.686Z,3.88
2022-07-30T23:28:47.515Z,3.50
2022-07-30T23:31:14.349Z,3.60
2022-07-30T23:33:41.257Z,3.88
2022-07-30T23:36:09.507Z,3.63
2022-07-30T23:38:37.113Z,3.78
2022-07-30T23:41:04.455Z,4.35
2022-07-30T23:43:31.660Z,3.47
2022-07-30T23:45:58.472Z,3.50
2022-07-30T23:48:25.410Z,4.07
2022-07-30T23:50:52.231Z,3.88
2022-07-30T23:53:19.091Z,3.72
2022-07-30T23:55:48.134Z,3.20
2022-07-30T23:58:14.932Z,3.40
